Time,TemperatureF,DewpointF,PressureIn,WindDirection,WindDirectionDegrees,WindSpeedMPH,WindSpeedGustMPH,Humidity,HourlyPrecipIn,Conditions,Clouds,dailyrainin,SoftwareType,DateUTC
2013-05-14 06:05:00,55.6,41.9,29.92,South,186,12.0,12.0,60,0.00,,,0.00,Wunderground v.1.15,2013-05-14 11:05:00,
2013-05-14 06:10:00,55.6,41.9,29.92,South,186,12.0,15.0,60,0.00,,,0.00,Wunderground v.1.15,2013-05-14 11:10:00,
2013-05-14 06:15:00,55.6,42.4,29.92,South,174,11.0,15.0,61,0.00,,,0.00,Wunderground v.1.15,2013-05-14 11:15:00,
2013-05-14 06:20:00,55.6,42.4,29.92,South,178,12.0,12.0,61,0.00,,,0.00,Wunderground v.1.15,2013-05-14 11:20:00,
2013-05-14 06:25:00,55.7,42.5,29.92,SSE,163,12.0,16.0,61,0.00,,,0.00,Wunderground v.1.15,2013-05-14 11:25:00,
2013-05-14 06:30:00,55.8,42.5,29.92,South,182,12.0,12.0,61,0.00,,,0.00,Wunderground v.1.15,2013-05-14 11:30:00,
2013-05-14 06:40:00,56.0,43.2,29.91,SSW,197,12.0,12.0,62,0.00,,,0.00,Wunderground v.1.15,2013-05-14 11:40:00,
2013-05-14 06:45:00,56.2,43.3,29.91,South,173,12.0,14.0,62,0.00,,,0.00,Wunderground v.1.15,2013-05-14 11:45:00,
2013-05-14 06:50:00,56.4,43.5,29.91,SSE,154,12.0,12.0,62,0.00,,,0.00,Wunderground v.1.15,2013-05-14 11:50:00,
2013-05-14 06:55:00,56.7,43.8,29.91,South,169,12.0,14.0,62,0.00,,,0.00,Wunderground v.1.15,2013-05-14 11:55:00,
2013-05-14 07:00:00,57.1,44.2,29.90,South,188,13.0,15.0,62,0.00,,,0.00,Wunderground v.1.15,2013-05-14 12:00:00,
2013-05-14 07:10:00,57.8,44.9,29.90,SSE,157,12.0,12.0,62,0.00,,,0.00,Wunderground v.1.15,2013-05-14 12:10:00,
2013-05-14 07:15:00,58.2,44.8,29.89,South,188,12.0,13.0,61,0.00,,,0.00,Wunderground v.1.15,2013-05-14 12:15:00,
2013-05-14 07:20:00,58.6,45.2,29.89,SSW,198,13.0,13.0,61,0.00,,,0.00,Wunderground v.1.15,2013-05-14 12:20:00,
2013-05-14 07:25:00,59.1,45.7,29.89,SSE,167,14.0,14.0,61,0.00,,,0.00,Wunderground v.1.15,2013-05-14 12:25:00,
2013-05-14 07:30:00,59.6,46.1,29.89,South,169,13.0,13.0,61,0.00,,,0.00,Wunderground v.1.15,2013-05-14 12:30:00,
2013-05-14 07:35:00,60.1,46.6,29.88,SSW,194,13.0,13.0,61,0.00,,,0.00,Wunderground v.1.15,2013-05-14 12:35:00,
2013-05-14 07:40:00,60.6,46.6,29.88,South,187,13.0,18.0,60,0.00,,,0.00,Wunderground v.1.15,2013-05-14 12:40:00,
2013-05-14 07:45:00,60.9,47.4,29.88,South,185,14.0,18.0,61,0.00,,,0.00,Wunderground v.1.15,2013-05-14 12:45:00,
2013-05-14 07:50:00,61.4,47.4,29.88,South,191,15.0,17.0,60,0.00,,,0.00,Wunderground v.1.15,2013-05-14 12:50:00,
2013-05-14 07:55:00,61.7,47.7,29.87,SSW,192,15.0,17.0,60,0.00,,,0.00,Wunderground v.1.15,2013-05-14 12:55:00,
2013-05-14 08:00:00,62.1,47.6,29.87,South,189,15.0,18.0,59,0.00,,,0.00,Wunderground v.1.15,2013-05-14 13:00:00,
2013-05-14 14:25:00,90.0,58.7,29.77,West,259,12.0,12.0,35,0.00,,,0.00,Wunderground v.1.15,2013-05-14 19:25:00,
2013-05-14 14:30:00,90.2,59.6,29.77,SW,217,12.0,12.0,36,0.00,,,0.00,Wunderground v.1.15,2013-05-14 19:30:00,
2013-05-14 14:35:00,90.4,59.8,29.77,SW,220,11.0,15.0,36,0.00,,,0.00,Wunderground v.1.15,2013-05-14 19:35:00,
2013-05-14 14:40:00,90.4,59.0,29.77,SW,232,13.0,15.0,35,0.00,,,0.00,Wunderground v.1.15,2013-05-14 19:40:00,
2013-05-14 14:45:00,90.8,60.2,29.77,West,277,13.0,13.0,36,0.00,,,0.00,Wunderground v.1.15,2013-05-14 19:45:00,
2013-05-14 14:50:00,90.8,58.6,29.76,WSW,240,10.0,13.0,34,0.00,,,0.00,Wunderground v.1.15,2013-05-14 19:50:00,
2013-05-14 14:55:00,90.9,58.7,29.76,SW,234,10.0,15.0,34,0.00,,,0.00,Wunderground v.1.15,2013-05-14 19:55:00,
2013-05-14 15:00:00,91.2,58.9,29.76,SW,230,12.0,15.0,34,0.00,,,0.00,Wunderground v.1.15,2013-05-14 20:00:00,
2013-05-14 15:05:00,91.5,58.3,29.76,SW,233,12.0,15.0,33,0.00,,,0.00,Wunderground v.1.15,2013-05-14 20:05:00,
2013-05-14 15:10:00,91.6,57.6,29.76,WSW,247,11.0,15.0,32,0.00,,,0.00,Wunderground v.1.15,2013-05-14 20:10:00,
2013-05-14 15:15:00,91.5,58.3,29.75,WSW,247,12.0,15.0,33,0.00,,,0.00,Wunderground v.1.15,2013-05-14 20:15:00,
2013-05-14 15:20:00,91.7,58.5,29.75,WSW,254,13.0,13.0,33,0.00,,,0.00,Wunderground v.1.15,2013-05-14 20:20:00,
2013-05-14 15:25:00,92.1,58.9,29.75,WSW,241,12.0,13.0,33,0.00,,,0.00,Wunderground v.1.15,2013-05-14 20:25:00,
2013-05-14 15:30:00,92.7,58.5,29.75,WSW,256,11.0,11.0,32,0.00,,,0.00,Wunderground v.1.15,2013-05-14 20:30:00,
2013-05-14 15:35:00,92.7,56.7,29.75,West,266,11.0,12.0,30,0.00,,,0.00,Wunderground v.1.15,2013-05-14 20:35:00,
2013-05-14 15:40:00,92.5,58.4,29.75,SW,215,11.0,11.0,32,0.00,,,0.00,Wunderground v.1.15,2013-05-14 20:40:00,
2013-05-14 15:45:00,92.8,58.6,29.75,West,277,10.0,11.0,32,0.00,,,0.00,Wunderground v.1.15,2013-05-14 20:45:00,
2013-05-14 15:50:00,92.7,58.5,29.74,SSW,201,10.0,10.0,32,0.00,,,0.00,Wunderground v.1.15,2013-05-14 20:50:00,
2013-05-14 15:55:00,92.9,58.7,29.74,West,272,11.0,13.0,32,0.00,,,0.00,Wunderground v.1.15,2013-05-14 20:55:00,
2013-05-14 16:00:00,93.1,58.0,29.74,WSW,244,10.0,10.0,31,0.00,,,0.00,Wunderground v.1.15,2013-05-14 21:00:00,
2013-05-14 16:05:00,92.9,59.6,29.74,SW,229,10.0,11.0,33,0.00,,,0.00,Wunderground v.1.15,2013-05-14 21:05:00,
2013-05-14 16:10:00,93.1,58.0,29.74,SW,226,10.0,10.0,31,0.00,,,0.00,Wunderground v.1.15,2013-05-14 21:10:00,
2013-05-14 16:15:00,93.2,57.2,29.74,West,259,9.0,12.0,30,0.00,,,0.00,Wunderground v.1.15,2013-05-14 21:15:00,
2013-05-14 16:20:00,92.9,58.7,29.74,West,262,10.0,10.0,32,0.00,,,0.00,Wunderground v.1.15,2013-05-14 21:20:00,
2013-05-14 16:30:00,93.0,57.0,29.74,WSW,254,11.0,11.0,30,0.00,,,0.00,Wunderground v.1.15,2013-05-14 21:30:00,
2013-05-14 16:35:00,93.3,58.2,29.74,SW,232,10.0,11.0,31,0.00,,,0.00,Wunderground v.1.15,2013-05-14 21:35:00,
2013-05-14 16:40:00,93.6,56.6,29.74,WSW,253,10.0,13.0,29,0.00,,,0.00,Wunderground v.1.15,2013-05-14 21:40:00,
2013-05-14 16:45:00,93.4,58.2,29.74,SW,233,10.0,13.0,31,0.00,,,0.00,Wunderground v.1.15,2013-05-14 21:45:00,
2013-05-14 16:50:00,93.3,59.0,29.74,West,267,10.0,10.0,32,0.00,,,0.00,Wunderground v.1.15,2013-05-14 21:50:00,
2013-05-14 16:55:00,93.3,58.2,29.74,SW,235,9.0,16.0,31,0.00,,,0.00,Wunderground v.1.15,2013-05-14 21:55:00,
2013-05-14 17:00:00,93.3,57.2,29.74,SW,228,11.0,11.0,30,0.00,,,0.00,Wunderground v.1.15,2013-05-14 22:00:00,
2013-05-14 17:10:00,93.6,53.6,29.74,WNW,292,10.0,10.0,26,0.00,,,0.00,Wunderground v.1.15,2013-05-14 22:10:00,
2013-05-14 17:15:00,93.5,55.5,29.74,WSW,257,10.0,10.0,28,0.00,,,0.00,Wunderground v.1.15,2013-05-14 22:15:00,
2013-05-14 17:20:00,93.7,53.6,29.73,West,261,9.0,10.0,26,0.00,,,0.00,Wunderground v.1.15,2013-05-14 22:20:00,
2013-05-14 17:25:00,93.7,52.6,29.74,West,270,9.0,12.0,25,0.00,,,0.00,Wunderground v.1.15,2013-05-14 22:25:00,
2013-05-14 17:30:00,93.5,53.5,29.73,West,267,10.0,11.0,26,0.00,,,0.00,Wunderground v.1.15,2013-05-14 22:30:00,
2013-05-14 17:35:00,93.2,53.2,29.73,WNW,296,10.0,11.0,26,0.00,,,0.00,Wunderground v.1.15,2013-05-14 22:35:00,
2013-05-14 17:40:00,93.2,53.2,29.73,WNW,289,8.0,8.0,26,0.00,,,0.00,Wunderground v.1.15,2013-05-14 22:40:00,
2013-05-14 17:45:00,93.5,53.5,29.73,WSW,257,6.0,9.0,26,0.00,,,0.00,Wunderground v.1.15,2013-05-14 22:45:00,
2013-05-14 17:50:00,93.5,54.5,29.73,WNW,294,6.0,6.0,27,0.00,,,0.00,Wunderground v.1.15,2013-05-14 22:50:00,
2013-05-14 17:55:00,93.3,54.3,29.72,West,279,7.0,8.0,27,0.00,,,0.00,Wunderground v.1.15,2013-05-14 22:55:00,
2013-05-14 18:00:00,93.1,53.1,29.72,WNW,282,8.0,8.0,26,0.00,,,0.00,Wunderground v.1.15,2013-05-14 23:00:00,
2013-05-14 18:10:00,93.0,55.1,29.71,SW,231,8.0,11.0,28,0.00,,,0.00,Wunderground v.1.15,2013-05-14 23:10:00,
2013-05-14 18:15:00,93.0,56.0,29.71,SSW,205,9.0,11.0,29,0.00,,,0.00,Wunderground v.1.15,2013-05-14 23:15:00,
2013-05-14 18:20:00,92.6,55.7,29.71,SSW,207,10.0,10.0,29,0.00,,,0.00,Wunderground v.1.15,2013-05-14 23:20:00,
2013-05-14 18:25:00,92.4,58.3,29.71,SSW,198,10.0,10.0,32,0.00,,,0.00,Wunderground v.1.15,2013-05-14 23:25:00,
2013-05-14 18:30:00,92.0,58.8,29.71,SSW,209,11.0,11.0,33,0.00,,,0.00,Wunderground v.1.15,2013-05-14 23:30:00,
2013-05-14 18:35:00,91.6,58.4,29.71,SW,220,11.0,14.0,33,0.00,,,0.00,Wunderground v.1.15,2013-05-14 23:35:00,
2013-05-14 18:40:00,91.3,59.0,29.71,SW,219,11.0,11.0,34,0.00,,,0.00,Wunderground v.1.15,2013-05-14 23:40:00,
2013-05-14 18:45:00,91.1,58.8,29.71,SW,224,11.0,11.0,34,0.00,,,0.00,Wunderground v.1.15,2013-05-14 23:45:00,
2013-05-14 18:50:00,90.9,60.3,29.71,SW,223,10.0,10.0,36,0.00,,,0.00,Wunderground v.1.15,2013-05-14 23:50:00,
2013-05-14 18:55:00,90.6,60.8,29.71,SSW,193,9.0,10.0,37,0.00,,,0.00,Wunderground v.1.15,2013-05-14 23:55:00,
2013-05-14 19:00:00,90.2,61.9,29.71,SSW,201,9.0,14.0,39,0.00,,,0.00,Wunderground v.1.15,2013-05-15 00:00:00,
2013-05-14 19:05:00,89.8,62.3,29.71,SSW,194,10.0,14.0,40,0.00,,,0.00,Wunderground v.1.15,2013-05-15 00:05:00,
2013-05-14 19:10:00,89.3,62.5,29.71,SSW,194,11.0,12.0,41,0.00,,,0.00,Wunderground v.1.15,2013-05-15 00:10:00,
2013-05-14 19:15:00,88.5,62.5,29.71,South,179,11.0,12.0,42,0.00,,,0.00,Wunderground v.1.15,2013-05-15 00:15:00,
2013-05-14 19:20:00,87.9,62.6,29.71,South,179,11.0,11.0,43,0.00,,,0.00,Wunderground v.1.15,2013-05-15 00:20:00,
2013-05-14 19:25:00,87.3,62.7,29.70,SSW,194,10.0,11.0,44,0.00,,,0.00,Wunderground v.1.15,2013-05-15 00:25:00,
2013-05-14 19:30:00,86.9,62.4,29.70,SSW,203,11.0,11.0,44,0.00,,,0.00,Wunderground v.1.15,2013-05-15 00:30:00,
2013-05-14 19:35:00,86.6,62.7,29.71,SSW,199,11.0,11.0,45,0.00,,,0.00,Wunderground v.1.15,2013-05-15 00:35:00,
2013-05-14 19:40:00,86.1,62.3,29.70,South,184,10.0,11.0,45,0.00,,,0.00,Wunderground v.1.15,2013-05-15 00:40:00,
2013-05-14 19:45:00,85.7,62.5,29.70,SSW,201,9.0,11.0,46,0.00,,,0.00,Wunderground v.1.15,2013-05-15 00:45:00,
2013-05-14 19:50:00,85.2,62.1,29.71,SSW,200,9.0,9.0,46,0.00,,,0.00,Wunderground v.1.15,2013-05-15 00:50:00,
2013-05-14 19:55:00,84.8,62.3,29.71,SSW,198,9.0,9.0,47,0.00,,,0.00,Wunderground v.1.15,2013-05-15 00:55:00,
2013-05-14 20:00:00,84.4,62.6,29.71,SSW,194,10.0,10.0,48,0.00,,,0.00,Wunderground v.1.15,2013-05-15 01:00:00,
2013-05-14 20:10:00,83.9,62.7,29.71,South,179,10.0,10.0,49,0.00,,,0.00,Wunderground v.1.15,2013-05-15 01:10:00,
2013-05-14 20:15:00,83.6,63.0,29.70,South,173,10.0,10.0,50,0.00,,,0.00,Wunderground v.1.15,2013-05-15 01:15:00,
2013-05-14 20:20:00,83.3,63.3,29.70,SSE,165,9.0,9.0,51,0.00,,,0.00,Wunderground v.1.15,2013-05-15 01:20:00,
2013-05-14 20:25:00,82.9,62.9,29.71,SSW,194,8.0,9.0,51,0.00,,,0.00,Wunderground v.1.15,2013-05-15 01:25:00,
2013-05-14 20:30:00,82.6,63.2,29.71,South,185,9.0,10.0,52,0.00,,,0.00,Wunderground v.1.15,2013-05-15 01:30:00,
2013-05-14 20:35:00,82.5,63.1,29.71,SSW,196,10.0,11.0,52,0.00,,,0.00,Wunderground v.1.15,2013-05-15 01:35:00,
2013-05-14 20:40:00,82.3,62.9,29.71,South,183,11.0,11.0,52,0.00,,,0.00,Wunderground v.1.15,2013-05-15 01:40:00,
2013-05-14 20:50:00,81.9,63.1,29.71,South,187,11.0,12.0,53,0.00,,,0.00,Wunderground v.1.15,2013-05-15 01:50:00,
2013-05-14 20:55:00,81.7,62.9,29.71,South,185,11.0,13.0,53,0.00,,,0.00,Wunderground v.1.15,2013-05-15 01:55:00,
2013-05-14 21:00:00,81.4,62.6,29.72,SSE,156,12.0,12.0,53,0.00,,,0.00,Wunderground v.1.15,2013-05-15 02:00:00,
2013-05-14 21:05:00,81.2,62.4,29.72,South,181,11.0,13.0,53,0.00,,,0.00,Wunderground v.1.15,2013-05-15 02:05:00,
2013-05-14 21:10:00,81.1,62.3,29.72,SSE,158,11.0,11.0,53,0.00,,,0.00,Wunderground v.1.15,2013-05-15 02:10:00,
2013-05-14 21:15:00,80.8,62.6,29.72,South,175,9.0,11.0,54,0.00,,,0.00,Wunderground v.1.15,2013-05-15 02:15:00,
2013-05-14 21:20:00,80.5,62.8,29.72,South,184,8.0,8.0,55,0.00,,,0.00,Wunderground v.1.15,2013-05-15 02:20:00,
2013-05-14 21:25:00,80.0,62.4,29.72,SSW,205,7.0,9.0,55,0.00,,,0.00,Wunderground v.1.15,2013-05-15 02:25:00,
2013-05-14 21:30:00,79.8,62.2,29.73,South,174,7.0,8.0,55,0.00,,,0.00,Wunderground v.1.15,2013-05-15 02:30:00,
2013-05-14 21:35:00,79.5,61.9,29.73,South,186,8.0,8.0,55,0.00,,,0.00,Wunderground v.1.15,2013-05-15 02:35:00,
2013-05-14 21:40:00,79.2,62.1,29.73,South,184,8.0,8.0,56,0.00,,,0.00,Wunderground v.1.15,2013-05-15 02:40:00,
2013-05-14 21:45:00,78.8,62.3,29.73,South,170,7.0,11.0,57,0.00,,,0.00,Wunderground v.1.15,2013-05-15 02:45:00,
2013-05-14 21:50:00,78.5,62.0,29.73,South,190,7.0,7.0,57,0.00,,,0.00,Wunderground v.1.15,2013-05-15 02:50:00,
2013-05-14 21:55:00,78.2,62.2,29.73,SSW,194,7.0,8.0,58,0.00,,,0.00,Wunderground v.1.15,2013-05-15 02:55:00,
2013-05-14 22:00:00,77.8,62.8,29.73,South,185,6.0,7.0,60,0.00,,,0.00,Wunderground v.1.15,2013-05-15 03:00:00,
2013-05-14 22:10:00,77.4,62.4,29.73,SSW,192,7.0,7.0,60,0.00,,,0.00,Wunderground v.1.15,2013-05-15 03:10:00,